Etusivu
METAR-TAF:

METAR-TAF

Lentoasemat :

Kramfors, Ruotsi

Leveyspiiri: 63-03N, Pituuspiiri: 017-46E, korkeus merenpinnasta: 10 m

Tämänhetkinen sää

Tämä raportti tehtiin 39 minuuttia sitten, kello 19.50 UTC
Tuuli 4 kn etelästä/kaakosta
Lämpötila 6°C
Kosteus 65%
Ilmanpaine 1024 hPa
Näkyvyys 10 km tai enemmän

METAR: ESNK 241950Z AUTO 15004KT 9999 NCD 06/00 Q1024

Aika: 22:29 (20:29 UTC)

Sääennuste

Tämä raportti tehtiin 5 tuntia ja 59 minuuttia sitten, kello 14.30 UTC
Ennuste voimassa 24. päivästä klo 15 UTC - 24. päivään klo 19 UTC
Tuuli 12 kn etelästä/kaakosta
Näkyvyys 10 km tai enemmän
ei pilviä alle 1500 m:ssä eikä cumulonimbus-pilviä

TAF: ESNK 241430Z 2415/2419 16012KT CAVOK

Säähavainnot ja -ennusteet yli 4000 lentoasemalta (METAR- ja TAF-raportit).

Käytössä olevat sääasemat on merkitty karttaan keltaisilla ja punaisilla pisteillä.

Aseta hiiri pisteen päälle nähdäksesi sääaseman nimen.

Klikkaa sitten nähdäksesi säähavainnot ja -ennusteet.

Kartan vaihtaminen: klikkaa mustalla rastilla varustettuja vihreitä pisteitä, niin voit zoomata sisään; viivalla varustettua vihreää pistettä, niin voit zoomata ulos tai vihreitä nuolia, niin pääset viereisille kartoille.


METAR-TAF: